sensor_id;sensor_type;location;lat;lon;timestamp;temperature;humidity
15638;DHT22;26604;53.596;10.042;2023-08-30T00:01:23;13.50;99.90
15638;DHT22;26604;53.596;10.042;2023-08-30T00:03:49;13.50;99.90
15638;DHT22;26604;53.596;10.042;2023-08-30T00:06:16;13.50;99.90
15638;DHT22;26604;53.596;10.042;2023-08-30T00:08:44;13.50;99.90
15638;DHT22;26604;53.596;10.042;2023-08-30T00:11:11;13.40;99.90
15638;DHT22;26604;53.596;10.042;2023-08-30T00:13:39;13.40;99.90
15638;DHT22;26604;53.596;10.042;2023-08-30T00:16:06;13.40;99.90
15638;DHT22;26604;53.596;10.042;2023-08-30T00:18:33;13.30;99.90
15638;DHT22;26604;53.596;10.042;2023-08-30T00:21:00;13.30;99.90
15638;DHT22;26604;53.596;10.042;2023-08-30T00:23:27;13.30;99.90
15638;DHT22;26604;53.596;10.042;2023-08-30T00:25:53;13.30;99.90
15638;DHT22;26604;53.596;10.042;2023-08-30T00:28:20;13.20;99.90
15638;DHT22;26604;53.596;10.042;2023-08-30T00:30:53;13.20;99.90
15638;DHT22;26604;53.596;10.042;2023-08-30T00:33:20;13.20;99.90
15638;DHT22;26604;53.596;10.042;2023-08-30T00:35:47;13.10;99.90
15638;DHT22;26604;53.596;10.042;2023-08-30T00:38:22;13.10;99.90
15638;DHT22;26604;53.596;10.042;2023-08-30T00:40:48;13.10;99.90
15638;DHT22;26604;53.596;10.042;2023-08-30T00:43:15;13.10;99.90
15638;DHT22;26604;53.596;10.042;2023-08-30T00:45:42;13.10;99.90
15638;DHT22;26604;53.596;10.042;2023-08-30T00:48:11;13.10;99.90
15638;DHT22;26604;53.596;10.042;2023-08-30T00:50:38;13.00;99.90
15638;DHT22;26604;53.596;10.042;2023-08-30T00:53:06;13.00;99.90
15638;DHT22;26604;53.596;10.042;2023-08-30T00:55:35;13.00;99.90
15638;DHT22;26604;53.596;10.042;2023-08-30T00:58:02;12.90;99.90
15638;DHT22;26604;53.596;10.042;2023-08-30T01:00:29;12.90;99.90
15638;DHT22;26604;53.596;10.042;2023-08-30T01:02:57;12.90;99.90
15638;DHT22;26604;53.596;10.042;2023-08-30T01:05:25;12.80;99.90
15638;DHT22;26604;53.596;10.042;2023-08-30T01:07:52;12.80;99.90
15638;DHT22;26604;53.596;10.042;2023-08-30T01:10:24;12.80;99.90
15638;DHT22;26604;53.596;10.042;2023-08-30T01:12:57;12.80;99.90
15638;DHT22;26604;53.596;10.042;2023-08-30T01:15:26;12.80;99.90
15638;DHT22;26604;53.596;10.042;2023-08-30T01:17:54;12.70;99.90
15638;DHT22;26604;53.596;10.042;2023-08-30T01:20:25;12.70;99.90
15638;DHT22;26604;53.596;10.042;2023-08-30T01:22:57;12.70;99.90
15638;DHT22;26604;53.596;10.042;2023-08-30T01:25:31;12.70;99.90
15638;DHT22;26604;53.596;10.042;2023-08-30T01:28:03;12.70;99.90
15638;DHT22;26604;53.596;10.042;2023-08-30T01:30:32;12.80;99.90
15638;DHT22;26604;53.596;10.042;2023-08-30T01:33:00;12.80;99.90
15638;DHT22;26604;53.596;10.042;2023-08-30T01:35:28;12.80;99.90
15638;DHT22;26604;53.596;10.042;2023-08-30T01:37:58;12.80;99.90
15638;DHT22;26604;53.596;10.042;2023-08-30T01:40:27;12.80;99.90
15638;DHT22;26604;53.596;10.042;2023-08-30T01:42:55;12.80;99.90
15638;DHT22;26604;53.596;10.042;2023-08-30T01:45:24;12.80;99.90
15638;DHT22;26604;53.596;10.042;2023-08-30T01:47:53;12.80;99.90
15638;DHT22;26604;53.596;10.042;2023-08-30T01:50:21;12.80;99.90
15638;DHT22;26604;53.596;10.042;2023-08-30T01:52:48;12.70;99.90
15638;DHT22;26604;53.596;10.042;2023-08-30T01:55:15;12.80;99.90
15638;DHT22;26604;53.596;10.042;2023-08-30T01:57:44;12.80;99.90
15638;DHT22;26604;53.596;10.042;2023-08-30T02:00:12;12.70;99.90
15638;DHT22;26604;53.596;10.042;2023-08-30T02:02:41;12.70;99.90
15638;DHT22;26604;53.596;10.042;2023-08-30T02:05:08;12.70;99.90
15638;DHT22;26604;53.596;10.042;2023-08-30T02:07:39;12.70;99.90
15638;DHT22;26604;53.596;10.042;2023-08-30T02:10:09;12.70;99.90
15638;DHT22;26604;53.596;10.042;2023-08-30T02:12:41;12.60;99.90
15638;DHT22;26604;53.596;10.042;2023-08-30T02:15:10;12.60;99.90
15638;DHT22;26604;53.596;10.042;2023-08-30T02:17:40;12.60;99.90
15638;DHT22;26604;53.596;10.042;2023-08-30T02:20:07;12.60;99.90
15638;DHT22;26604;53.596;10.042;2023-08-30T02:22:34;12.60;99.90
15638;DHT22;26604;53.596;10.042;2023-08-30T02:25:01;12.60;99.90
15638;DHT22;26604;53.596;10.042;2023-08-30T02:27:30;12.60;99.90
15638;DHT22;26604;53.596;10.042;2023-08-30T02:29:57;12.60;99.90
15638;DHT22;26604;53.596;10.042;2023-08-30T02:32:24;12.70;99.90
15638;DHT22;26604;53.596;10.042;2023-08-30T02:34:53;12.70;99.90
15638;DHT22;26604;53.596;10.042;2023-08-30T02:37:20;12.70;99.90
15638;DHT22;26604;53.596;10.042;2023-08-30T02:39:47;12.80;99.90
15638;DHT22;26604;53.596;10.042;2023-08-30T02:42:14;12.80;99.90
15638;DHT22;26604;53.596;10.042;2023-08-30T02:44:40;12.90;99.90
15638;DHT22;26604;53.596;10.042;2023-08-30T02:47:07;12.90;99.90
15638;DHT22;26604;53.596;10.042;2023-08-30T02:49:34;12.90;99.90
15638;DHT22;26604;53.596;10.042;2023-08-30T02:52:03;13.00;99.90
15638;DHT22;26604;53.596;10.042;2023-08-30T02:54:30;13.00;99.90
15638;DHT22;26604;53.596;10.042;2023-08-30T02:56:57;13.00;99.90
15638;DHT22;26604;53.596;10.042;2023-08-30T02:59:23;13.00;99.90
15638;DHT22;26604;53.596;10.042;2023-08-30T03:01:50;13.00;99.90
15638;DHT22;26604;53.596;10.042;2023-08-30T03:04:17;13.00;99.90
15638;DHT22;26604;53.596;10.042;2023-08-30T03:06:44;12.90;99.90
15638;DHT22;26604;53.596;10.042;2023-08-30T03:09:12;12.90;99.90
15638;DHT22;26604;53.596;10.042;2023-08-30T03:11:39;12.90;99.90
15638;DHT22;26604;53.596;10.042;2023-08-30T03:14:06;13.00;99.90
15638;DHT22;26604;53.596;10.042;2023-08-30T03:16:33;13.00;99.90
15638;DHT22;26604;53.596;10.042;2023-08-30T03:19:02;13.00;99.90
15638;DHT22;26604;53.596;10.042;2023-08-30T03:21:28;13.00;99.90
15638;DHT22;26604;53.596;10.042;2023-08-30T03:23:55;13.00;99.90
15638;DHT22;26604;53.596;10.042;2023-08-30T03:26:24;13.00;99.90
15638;DHT22;26604;53.596;10.042;2023-08-30T03:28:50;13.00;99.90
15638;DHT22;26604;53.596;10.042;2023-08-30T03:31:18;13.00;99.90
15638;DHT22;26604;53.596;10.042;2023-08-30T03:33:46;13.00;99.90
15638;DHT22;26604;53.596;10.042;2023-08-30T03:36:14;13.10;99.90
15638;DHT22;26604;53.596;10.042;2023-08-30T03:38:42;13.10;99.90
15638;DHT22;26604;53.596;10.042;2023-08-30T03:41:09;13.10;99.90
15638;DHT22;26604;53.596;10.042;2023-08-30T03:43:38;13.10;99.90
15638;DHT22;26604;53.596;10.042;2023-08-30T03:46:05;13.10;99.90
15638;DHT22;26604;53.596;10.042;2023-08-30T03:48:32;13.20;99.90
15638;DHT22;26604;53.596;10.042;2023-08-30T03:50:59;13.20;99.90
15638;DHT22;26604;53.596;10.042;2023-08-30T03:53:26;13.20;99.90
15638;DHT22;26604;53.596;10.042;2023-08-30T03:55:55;13.20;99.90
15638;DHT22;26604;53.596;10.042;2023-08-30T03:58:22;13.20;99.90
15638;DHT22;26604;53.596;10.042;2023-08-30T04:00:50;13.20;99.90
15638;DHT22;26604;53.596;10.042;2023-08-30T04:03:17;13.20;99.90
15638;DHT22;26604;53.596;10.042;2023-08-30T04:05:44;13.20;99.90
15638;DHT22;26604;53.596;10.042;2023-08-30T04:08:11;13.20;99.90
15638;DHT22;26604;53.596;10.042;2023-08-30T04:10:39;13.20;99.90
15638;DHT22;26604;53.596;10.042;2023-08-30T04:13:06;13.20;99.90
15638;DHT22;26604;53.596;10.042;2023-08-30T04:15:34;13.20;99.90
15638;DHT22;26604;53.596;10.042;2023-08-30T04:18:03;13.20;99.90
15638;DHT22;26604;53.596;10.042;2023-08-30T04:20:30;13.30;99.90
15638;DHT22;26604;53.596;10.042;2023-08-30T04:22:57;13.30;99.90
15638;DHT22;26604;53.596;10.042;2023-08-30T04:25:27;13.30;99.90
15638;DHT22;26604;53.596;10.042;2023-08-30T04:27:54;13.30;99.90
15638;DHT22;26604;53.596;10.042;2023-08-30T04:30:21;13.30;99.90
15638;DHT22;26604;53.596;10.042;2023-08-30T04:32:48;13.30;99.90
15638;DHT22;26604;53.596;10.042;2023-08-30T04:35:16;13.30;99.90
15638;DHT22;26604;53.596;10.042;2023-08-30T04:37:43;13.40;99.90
15638;DHT22;26604;53.596;10.042;2023-08-30T04:40:10;13.40;99.90
15638;DHT22;26604;53.596;10.042;2023-08-30T04:42:37;13.40;99.90
15638;DHT22;26604;53.596;10.042;2023-08-30T04:45:06;13.50;99.90
15638;DHT22;26604;53.596;10.042;2023-08-30T04:47:34;13.50;99.90
15638;DHT22;26604;53.596;10.042;2023-08-30T04:50:00;13.60;99.90
15638;DHT22;26604;53.596;10.042;2023-08-30T04:52:29;13.70;99.90
15638;DHT22;26604;53.596;10.042;2023-08-30T04:54:56;13.70;99.90
15638;DHT22;26604;53.596;10.042;2023-08-30T04:57:23;13.80;99.90
15638;DHT22;26604;53.596;10.042;2023-08-30T04:59:49;13.90;99.90
15638;DHT22;26604;53.596;10.042;2023-08-30T05:02:16;13.90;99.90
15638;DHT22;26604;53.596;10.042;2023-08-30T05:04:43;14.00;99.90
15638;DHT22;26604;53.596;10.042;2023-08-30T05:07:10;14.10;99.90
15638;DHT22;26604;53.596;10.042;2023-08-30T05:09:38;14.20;99.90
15638;DHT22;26604;53.596;10.042;2023-08-30T05:12:06;14.30;99.90
15638;DHT22;26604;53.596;10.042;2023-08-30T05:14:33;14.40;99.90
15638;DHT22;26604;53.596;10.042;2023-08-30T05:17:00;14.50;99.90
15638;DHT22;26604;53.596;10.042;2023-08-30T05:19:27;14.60;99.90
15638;DHT22;26604;53.596;10.042;2023-08-30T05:21:54;14.60;99.90
15638;DHT22;26604;53.596;10.042;2023-08-30T05:24:21;14.70;99.90
15638;DHT22;26604;53.596;10.042;2023-08-30T05:26:50;14.80;99.90
15638;DHT22;26604;53.596;10.042;2023-08-30T05:29:16;14.80;99.90
15638;DHT22;26604;53.596;10.042;2023-08-30T05:31:43;14.90;99.90
15638;DHT22;26604;53.596;10.042;2023-08-30T05:34:11;15.00;99.90
15638;DHT22;26604;53.596;10.042;2023-08-30T05:36:37;15.00;99.90
15638;DHT22;26604;53.596;10.042;2023-08-30T05:39:05;15.10;99.90
15638;DHT22;26604;53.596;10.042;2023-08-30T05:41:32;15.20;99.90
15638;DHT22;26604;53.596;10.042;2023-08-30T05:44:00;15.30;99.90
15638;DHT22;26604;53.596;10.042;2023-08-30T05:46:28;15.40;99.90
15638;DHT22;26604;53.596;10.042;2023-08-30T05:48:55;15.60;99.90
15638;DHT22;26604;53.596;10.042;2023-08-30T05:51:22;15.70;99.90
15638;DHT22;26604;53.596;10.042;2023-08-30T05:53:48;15.80;99.90
15638;DHT22;26604;53.596;10.042;2023-08-30T05:56:15;15.90;99.90
15638;DHT22;26604;53.596;10.042;2023-08-30T05:58:42;16.00;99.90
15638;DHT22;26604;53.596;10.042;2023-08-30T06:01:10;16.10;99.90
15638;DHT22;26604;53.596;10.042;2023-08-30T06:03:37;16.20;99.90
15638;DHT22;26604;53.596;10.042;2023-08-30T06:06:05;16.30;99.90
15638;DHT22;26604;53.596;10.042;2023-08-30T06:08:32;16.50;99.90
15638;DHT22;26604;53.596;10.042;2023-08-30T06:10:59;16.60;99.90
15638;DHT22;26604;53.596;10.042;2023-08-30T06:13:25;16.80;99.90
15638;DHT22;26604;53.596;10.042;2023-08-30T06:15:52;16.90;99.90
15638;DHT22;26604;53.596;10.042;2023-08-30T06:18:21;17.10;99.90
15638;DHT22;26604;53.596;10.042;2023-08-30T06:20:47;17.20;98.70
15638;DHT22;26604;53.596;10.042;2023-08-30T06:23:18;17.40;57.80
15638;DHT22;26604;53.596;10.042;2023-08-30T06:25:53;17.50;1.00
15638;DHT22;26604;53.596;10.042;2023-08-30T06:28:20;17.60;1.00
15638;DHT22;26604;53.596;10.042;2023-08-30T06:30:47;17.70;1.00
15638;DHT22;26604;53.596;10.042;2023-08-30T06:33:14;17.90;1.00
15638;DHT22;26604;53.596;10.042;2023-08-30T06:35:42;18.00;1.00
15638;DHT22;26604;53.596;10.042;2023-08-30T06:38:09;18.10;1.00
15638;DHT22;26604;53.596;10.042;2023-08-30T06:40:36;18.30;1.00
15638;DHT22;26604;53.596;10.042;2023-08-30T06:43:03;18.40;1.00
15638;DHT22;26604;53.596;10.042;2023-08-30T06:45:30;18.50;99.90
15638;DHT22;26604;53.596;10.042;2023-08-30T06:47:57;18.50;99.90
15638;DHT22;26604;53.596;10.042;2023-08-30T06:50:24;18.50;99.90
15638;DHT22;26604;53.596;10.042;2023-08-30T06:52:52;18.50;99.90
15638;DHT22;26604;53.596;10.042;2023-08-30T06:55:19;18.50;1.00
15638;DHT22;26604;53.596;10.042;2023-08-30T06:57:48;18.60;1.00
15638;DHT22;26604;53.596;10.042;2023-08-30T07:00:15;18.60;1.00
15638;DHT22;26604;53.596;10.042;2023-08-30T07:02:42;18.70;1.00
15638;DHT22;26604;53.596;10.042;2023-08-30T07:05:11;18.80;99.90
15638;DHT22;26604;53.596;10.042;2023-08-30T07:07:38;18.90;99.90
15638;DHT22;26604;53.596;10.042;2023-08-30T07:10:07;19.00;1.00
15638;DHT22;26604;53.596;10.042;2023-08-30T07:12:33;19.10;1.00
15638;DHT22;26604;53.596;10.042;2023-08-30T07:15:01;19.20;91.00
15638;DHT22;26604;53.596;10.042;2023-08-30T07:17:30;19.20;1.00
15638;DHT22;26604;53.596;10.042;2023-08-30T07:19:56;19.20;1.00
15638;DHT22;26604;53.596;10.042;2023-08-30T07:22:23;19.30;1.00
15638;DHT22;26604;53.596;10.042;2023-08-30T07:24:50;19.40;1.00
15638;DHT22;26604;53.596;10.042;2023-08-30T07:27:19;19.60;1.00
15638;DHT22;26604;53.596;10.042;2023-08-30T07:29:46;19.70;99.90
15638;DHT22;26604;53.596;10.042;2023-08-30T07:32:12;19.80;1.00
15638;DHT22;26604;53.596;10.042;2023-08-30T07:34:40;19.80;99.90
15638;DHT22;26604;53.596;10.042;2023-08-30T07:37:17;19.80;60.60
15638;DHT22;26604;53.596;10.042;2023-08-30T07:39:45;19.80;99.90
15638;DHT22;26604;53.596;10.042;2023-08-30T07:42:13;19.70;18.90
15638;DHT22;26604;53.596;10.042;2023-08-30T07:44:41;19.70;1.00
15638;DHT22;26604;53.596;10.042;2023-08-30T07:47:08;19.70;99.90
15638;DHT22;26604;53.596;10.042;2023-08-30T07:49:35;19.70;1.00
15638;DHT22;26604;53.596;10.042;2023-08-30T07:52:02;19.70;1.00
15638;DHT22;26604;53.596;10.042;2023-08-30T07:54:30;19.70;1.00
15638;DHT22;26604;53.596;10.042;2023-08-30T07:56:57;19.80;99.90
15638;DHT22;26604;53.596;10.042;2023-08-30T07:59:24;19.80;1.00
15638;DHT22;26604;53.596;10.042;2023-08-30T08:01:52;19.80;1.00
15638;DHT22;26604;53.596;10.042;2023-08-30T08:04:19;19.90;1.00
15638;DHT22;26604;53.596;10.042;2023-08-30T08:06:46;19.90;1.00
15638;DHT22;26604;53.596;10.042;2023-08-30T08:09:13;20.00;1.00
15638;DHT22;26604;53.596;10.042;2023-08-30T08:11:41;20.00;99.90
15638;DHT22;26604;53.596;10.042;2023-08-30T08:14:09;20.10;1.00
15638;DHT22;26604;53.596;10.042;2023-08-30T08:16:37;20.20;99.90
15638;DHT22;26604;53.596;10.042;2023-08-30T08:19:05;20.20;99.90
15638;DHT22;26604;53.596;10.042;2023-08-30T08:21:32;20.30;89.20
15638;DHT22;26604;53.596;10.042;2023-08-30T08:23:59;20.30;1.00
15638;DHT22;26604;53.596;10.042;2023-08-30T08:26:27;20.40;54.90
15638;DHT22;26604;53.596;10.042;2023-08-30T08:28:54;20.40;23.70
15638;DHT22;26604;53.596;10.042;2023-08-30T08:31:21;20.40;1.00
15638;DHT22;26604;53.596;10.042;2023-08-30T08:33:51;20.40;1.00
15638;DHT22;26604;53.596;10.042;2023-08-30T08:36:20;20.50;1.00
15638;DHT22;26604;53.596;10.042;2023-08-30T08:38:47;20.50;99.90
15638;DHT22;26604;53.596;10.042;2023-08-30T08:41:15;20.60;99.90
15638;DHT22;26604;53.596;10.042;2023-08-30T08:43:43;20.70;1.00
15638;DHT22;26604;53.596;10.042;2023-08-30T08:46:11;20.70;1.00
15638;DHT22;26604;53.596;10.042;2023-08-30T08:48:41;20.80;88.40
15638;DHT22;26604;53.596;10.042;2023-08-30T08:51:10;20.90;99.90
15638;DHT22;26604;53.596;10.042;2023-08-30T08:53:38;21.00;99.90
15638;DHT22;26604;53.596;10.042;2023-08-30T08:56:06;21.10;99.90
15638;DHT22;26604;53.596;10.042;2023-08-30T08:58:36;21.20;26.10
15638;DHT22;26604;53.596;10.042;2023-08-30T09:01:04;21.40;1.00
15638;DHT22;26604;53.596;10.042;2023-08-30T09:03:33;21.40;1.00
15638;DHT22;26604;53.596;10.042;2023-08-30T09:06:02;21.50;1.00
15638;DHT22;26604;53.596;10.042;2023-08-30T09:08:29;21.70;1.00
15638;DHT22;26604;53.596;10.042;2023-08-30T09:10:57;21.90;99.90
15638;DHT22;26604;53.596;10.042;2023-08-30T09:13:24;22.00;1.00
15638;DHT22;26604;53.596;10.042;2023-08-30T09:15:51;22.10;1.00
15638;DHT22;26604;53.596;10.042;2023-08-30T09:18:18;22.20;1.00
15638;DHT22;26604;53.596;10.042;2023-08-30T09:20:45;22.30;1.00
15638;DHT22;26604;53.596;10.042;2023-08-30T09:23:19;22.40;99.90
15638;DHT22;26604;53.596;10.042;2023-08-30T09:25:47;22.50;99.90
15638;DHT22;26604;53.596;10.042;2023-08-30T09:28:22;22.40;99.90
15638;DHT22;26604;53.596;10.042;2023-08-30T09:30:49;22.50;99.90
15638;DHT22;26604;53.596;10.042;2023-08-30T09:33:20;22.60;1.00
15638;DHT22;26604;53.596;10.042;2023-08-30T09:35:47;22.80;33.70
15638;DHT22;26604;53.596;10.042;2023-08-30T09:38:17;22.90;1.00
15638;DHT22;26604;53.596;10.042;2023-08-30T09:40:44;23.00;1.00
15638;DHT22;26604;53.596;10.042;2023-08-30T09:43:12;23.10;1.00
15638;DHT22;26604;53.596;10.042;2023-08-30T09:45:40;23.10;1.00
15638;DHT22;26604;53.596;10.042;2023-08-30T09:48:08;23.20;1.00
15638;DHT22;26604;53.596;10.042;2023-08-30T09:50:35;23.30;1.00
15638;DHT22;26604;53.596;10.042;2023-08-30T09:53:07;23.20;1.00
15638;DHT22;26604;53.596;10.042;2023-08-30T09:55:35;23.10;1.00
15638;DHT22;26604;53.596;10.042;2023-08-30T09:58:02;23.10;1.00
15638;DHT22;26604;53.596;10.042;2023-08-30T10:00:31;23.00;1.00
15638;DHT22;26604;53.596;10.042;2023-08-30T10:02:59;23.10;1.00
15638;DHT22;26604;53.596;10.042;2023-08-30T10:05:27;23.10;1.00
15638;DHT22;26604;53.596;10.042;2023-08-30T10:07:54;23.10;1.00
15638;DHT22;26604;53.596;10.042;2023-08-30T10:10:22;23.20;99.90
15638;DHT22;26604;53.596;10.042;2023-08-30T10:12:50;23.30;99.90
15638;DHT22;26604;53.596;10.042;2023-08-30T10:15:16;23.30;99.90
15638;DHT22;26604;53.596;10.042;2023-08-30T10:17:45;23.20;99.90
15638;DHT22;26604;53.596;10.042;2023-08-30T10:20:14;23.20;99.90
15638;DHT22;26604;53.596;10.042;2023-08-30T10:22:42;23.20;99.90
15638;DHT22;26604;53.596;10.042;2023-08-30T10:25:11;23.20;1.00
15638;DHT22;26604;53.596;10.042;2023-08-30T10:27:46;23.30;1.00
15638;DHT22;26604;53.596;10.042;2023-08-30T10:30:15;23.40;1.00
15638;DHT22;26604;53.596;10.042;2023-08-30T10:32:43;23.40;1.00
15638;DHT22;26604;53.596;10.042;2023-08-30T10:35:11;23.40;1.00
15638;DHT22;26604;53.596;10.042;2023-08-30T10:37:40;23.40;1.00
15638;DHT22;26604;53.596;10.042;2023-08-30T10:40:08;23.50;1.00
15638;DHT22;26604;53.596;10.042;2023-08-30T10:42:35;23.50;1.00
15638;DHT22;26604;53.596;10.042;2023-08-30T10:45:04;23.60;1.00
15638;DHT22;26604;53.596;10.042;2023-08-30T10:47:33;23.60;1.00
15638;DHT22;26604;53.596;10.042;2023-08-30T10:50:07;23.70;1.00
15638;DHT22;26604;53.596;10.042;2023-08-30T10:52:34;23.80;1.00
15638;DHT22;26604;53.596;10.042;2023-08-30T10:55:06;24.00;1.00
15638;DHT22;26604;53.596;10.042;2023-08-30T10:57:34;24.10;1.00
15638;DHT22;26604;53.596;10.042;2023-08-30T11:00:05;24.30;1.00
15638;DHT22;26604;53.596;10.042;2023-08-30T11:02:34;24.30;1.00
15638;DHT22;26604;53.596;10.042;2023-08-30T11:05:01;24.20;1.00
15638;DHT22;26604;53.596;10.042;2023-08-30T11:07:29;24.10;1.00
15638;DHT22;26604;53.596;10.042;2023-08-30T11:09:56;24.10;1.00
15638;DHT22;26604;53.596;10.042;2023-08-30T11:12:24;24.00;1.00
15638;DHT22;26604;53.596;10.042;2023-08-30T11:14:53;23.90;1.00
15638;DHT22;26604;53.596;10.042;2023-08-30T11:17:20;23.90;1.00
15638;DHT22;26604;53.596;10.042;2023-08-30T11:19:51;23.90;1.00
15638;DHT22;26604;53.596;10.042;2023-08-30T11:22:23;23.90;1.00
15638;DHT22;26604;53.596;10.042;2023-08-30T11:24:50;23.70;1.00
15638;DHT22;26604;53.596;10.042;2023-08-30T11:27:18;23.70;1.00
15638;DHT22;26604;53.596;10.042;2023-08-30T11:29:46;23.60;1.00
15638;DHT22;26604;53.596;10.042;2023-08-30T11:32:13;23.50;29.90
15638;DHT22;26604;53.596;10.042;2023-08-30T11:34:40;23.50;5.10
15638;DHT22;26604;53.596;10.042;2023-08-30T11:37:07;23.50;1.00
15638;DHT22;26604;53.596;10.042;2023-08-30T11:39:34;23.50;1.00
15638;DHT22;26604;53.596;10.042;2023-08-30T11:42:03;23.70;1.00
15638;DHT22;26604;53.596;10.042;2023-08-30T11:44:32;23.80;1.00
15638;DHT22;26604;53.596;10.042;2023-08-30T11:47:00;24.10;1.00
15638;DHT22;26604;53.596;10.042;2023-08-30T11:49:28;24.30;1.00
15638;DHT22;26604;53.596;10.042;2023-08-30T11:51:55;24.40;99.90
15638;DHT22;26604;53.596;10.042;2023-08-30T11:54:24;24.40;99.90
15638;DHT22;26604;53.596;10.042;2023-08-30T11:56:51;24.40;99.90
15638;DHT22;26604;53.596;10.042;2023-08-30T11:59:19;24.40;99.90
15638;DHT22;26604;53.596;10.042;2023-08-30T12:01:46;24.30;99.90
15638;DHT22;26604;53.596;10.042;2023-08-30T12:04:15;24.30;99.90
15638;DHT22;26604;53.596;10.042;2023-08-30T12:06:44;24.40;99.90
15638;DHT22;26604;53.596;10.042;2023-08-30T12:09:14;24.40;99.90
15638;DHT22;26604;53.596;10.042;2023-08-30T12:11:41;24.40;99.90
15638;DHT22;26604;53.596;10.042;2023-08-30T12:14:08;24.30;99.90
15638;DHT22;26604;53.596;10.042;2023-08-30T12:16:34;24.20;99.90
15638;DHT22;26604;53.596;10.042;2023-08-30T12:19:11;24.20;1.00
15638;DHT22;26604;53.596;10.042;2023-08-30T12:21:43;24.10;1.00
15638;DHT22;26604;53.596;10.042;2023-08-30T12:24:10;24.10;99.90
15638;DHT22;26604;53.596;10.042;2023-08-30T12:26:37;24.10;99.90
15638;DHT22;26604;53.596;10.042;2023-08-30T12:29:04;24.10;1.00
15638;DHT22;26604;53.596;10.042;2023-08-30T12:31:31;24.20;1.00
15638;DHT22;26604;53.596;10.042;2023-08-30T12:33:58;24.40;1.00
15638;DHT22;26604;53.596;10.042;2023-08-30T12:36:25;24.40;99.90
15638;DHT22;26604;53.596;10.042;2023-08-30T12:38:54;24.50;99.90
15638;DHT22;26604;53.596;10.042;2023-08-30T12:41:21;24.50;99.90
15638;DHT22;26604;53.596;10.042;2023-08-30T12:43:49;24.60;99.90
15638;DHT22;26604;53.596;10.042;2023-08-30T12:46:16;24.70;99.90
15638;DHT22;26604;53.596;10.042;2023-08-30T12:48:43;24.70;99.90
15638;DHT22;26604;53.596;10.042;2023-08-30T12:51:10;24.60;99.90
15638;DHT22;26604;53.596;10.042;2023-08-30T12:53:39;24.50;99.90
15638;DHT22;26604;53.596;10.042;2023-08-30T12:56:07;24.40;99.90
15638;DHT22;26604;53.596;10.042;2023-08-30T12:58:34;24.40;99.90
15638;DHT22;26604;53.596;10.042;2023-08-30T13:01:01;24.30;99.90
15638;DHT22;26604;53.596;10.042;2023-08-30T13:03:28;24.30;99.90
15638;DHT22;26604;53.596;10.042;2023-08-30T13:05:54;24.20;99.90
15638;DHT22;26604;53.596;10.042;2023-08-30T13:08:21;24.20;99.90
15638;DHT22;26604;53.596;10.042;2023-08-30T13:10:49;24.10;99.90
15638;DHT22;26604;53.596;10.042;2023-08-30T13:13:17;24.10;99.90
15638;DHT22;26604;53.596;10.042;2023-08-30T13:15:44;23.90;99.90
15638;DHT22;26604;53.596;10.042;2023-08-30T13:18:11;23.90;99.90
15638;DHT22;26604;53.596;10.042;2023-08-30T13:20:38;23.80;1.00
15638;DHT22;26604;53.596;10.042;2023-08-30T13:23:05;23.70;99.90
15638;DHT22;26604;53.596;10.042;2023-08-30T13:25:32;23.50;1.00
15638;DHT22;26604;53.596;10.042;2023-08-30T13:27:59;23.50;99.90
15638;DHT22;26604;53.596;10.042;2023-08-30T13:30:27;23.40;1.00
15638;DHT22;26604;53.596;10.042;2023-08-30T13:32:54;23.40;1.00
15638;DHT22;26604;53.596;10.042;2023-08-30T13:35:21;23.40;1.00
15638;DHT22;26604;53.596;10.042;2023-08-30T13:37:48;23.40;1.00
15638;DHT22;26604;53.596;10.042;2023-08-30T13:40:15;23.40;1.00
15638;DHT22;26604;53.596;10.042;2023-08-30T13:42:42;23.40;1.00
15638;DHT22;26604;53.596;10.042;2023-08-30T13:45:09;23.50;1.00
15638;DHT22;26604;53.596;10.042;2023-08-30T13:47:40;23.50;1.00
15638;DHT22;26604;53.596;10.042;2023-08-30T13:50:07;23.50;1.00
15638;DHT22;26604;53.596;10.042;2023-08-30T13:52:34;23.60;1.00
15638;DHT22;26604;53.596;10.042;2023-08-30T13:55:01;23.60;1.00
15638;DHT22;26604;53.596;10.042;2023-08-30T13:57:28;23.60;1.00
15638;DHT22;26604;53.596;10.042;2023-08-30T13:59:55;23.60;1.00
15638;DHT22;26604;53.596;10.042;2023-08-30T14:02:22;23.50;1.00
15638;DHT22;26604;53.596;10.042;2023-08-30T14:04:52;23.50;1.00
15638;DHT22;26604;53.596;10.042;2023-08-30T14:07:18;23.40;1.00
15638;DHT22;26604;53.596;10.042;2023-08-30T14:09:45;23.30;1.00
15638;DHT22;26604;53.596;10.042;2023-08-30T14:12:12;23.30;1.00
15638;DHT22;26604;53.596;10.042;2023-08-30T14:14:39;23.30;1.00
15638;DHT22;26604;53.596;10.042;2023-08-30T14:17:06;23.30;1.00
15638;DHT22;26604;53.596;10.042;2023-08-30T14:19:34;23.20;1.00
15638;DHT22;26604;53.596;10.042;2023-08-30T14:22:03;23.00;1.00
15638;DHT22;26604;53.596;10.042;2023-08-30T14:24:31;22.90;1.00
15638;DHT22;26604;53.596;10.042;2023-08-30T14:26:59;22.70;1.00
15638;DHT22;26604;53.596;10.042;2023-08-30T14:29:26;22.60;1.00
15638;DHT22;26604;53.596;10.042;2023-08-30T14:31:53;22.60;1.40
15638;DHT22;26604;53.596;10.042;2023-08-30T14:34:20;22.60;1.00
15638;DHT22;26604;53.596;10.042;2023-08-30T14:36:47;22.70;1.00
15638;DHT22;26604;53.596;10.042;2023-08-30T14:39:15;22.70;1.00
15638;DHT22;26604;53.596;10.042;2023-08-30T14:41:42;22.60;1.00
15638;DHT22;26604;53.596;10.042;2023-08-30T14:44:09;22.60;1.00
15638;DHT22;26604;53.596;10.042;2023-08-30T14:46:36;22.50;1.00
15638;DHT22;26604;53.596;10.042;2023-08-30T14:49:03;22.40;1.00
15638;DHT22;26604;53.596;10.042;2023-08-30T14:51:30;22.30;1.00
15638;DHT22;26604;53.596;10.042;2023-08-30T14:53:57;22.20;1.00
15638;DHT22;26604;53.596;10.042;2023-08-30T14:56:25;22.00;70.30
15638;DHT22;26604;53.596;10.042;2023-08-30T14:58:52;21.90;29.80
15638;DHT22;26604;53.596;10.042;2023-08-30T15:01:18;21.90;99.90
15638;DHT22;26604;53.596;10.042;2023-08-30T15:03:45;21.80;99.90
15638;DHT22;26604;53.596;10.042;2023-08-30T15:06:12;21.90;99.90
15638;DHT22;26604;53.596;10.042;2023-08-30T15:08:39;21.90;99.90
15638;DHT22;26604;53.596;10.042;2023-08-30T15:11:06;21.90;99.90
15638;DHT22;26604;53.596;10.042;2023-08-30T15:13:35;21.90;99.90
15638;DHT22;26604;53.596;10.042;2023-08-30T15:16:03;21.90;99.90
15638;DHT22;26604;53.596;10.042;2023-08-30T15:18:30;21.90;99.90
15638;DHT22;26604;53.596;10.042;2023-08-30T15:20:57;21.90;99.90
15638;DHT22;26604;53.596;10.042;2023-08-30T15:23:25;21.90;99.90
15638;DHT22;26604;53.596;10.042;2023-08-30T15:25:52;21.80;99.90